Wetterdaten: Woche 24.10.16 - 30.10.16 (KW43)
Datum Zeit Temp. Aussen Temp. o. S. +5cm Feuchte Auss BlattFeu 1 Luftdruck Regen Sonnenschein Regendauer Solar Windben Empfang
24.10.2016 00:00 4,8 C 4,7 C 3,6 C 97 % 15 lf 1011,4 hPa 0,0 l/m 0,00 h 0,00 h 0 W/m 2,9 km/h (1 Bft) 96,42 %
24.10.2016 01:00 5,0 C 5,3 C 4,0 C 98 % 15 lf 1011,3 hPa 0,0 l/m 0,00 h 0,00 h 0 W/m 3,7 km/h (1 Bft) 98,58 %
24.10.2016 02:00 5,7 C 5,8 C 4,4 C 98 % 15 lf 1011,3 hPa 0,0 l/m 0,00 h 0,00 h 0 W/m 4,8 km/h (1 Bft) 94,45 %
24.10.2016 03:00 5,9 C 5,9 C 4,5 C 98 % 15 lf 1011,4 hPa 0,0 l/m 0,00 h 0,00 h 0 W/m 2,7 km/h (1 Bft) 97,43 %
24.10.2016 04:00 6,0 C 6,1 C 5,0 C 98 % 15 lf 1011,4 hPa 0,0 l/m 0,00 h 0,00 h 0 W/m 2,5 km/h (1 Bft) 95,84 %
24.10.2016 05:00 6,2 C 6,2 C 5,0 C 98 % 15 lf 1011,3 hPa 0,0 l/m 0,00 h 0,00 h 0 W/m 4,9 km/h (1 Bft) 96,37 %
24.10.2016 06:00 6,5 C 6,7 C 5,5 C 98 % 15 lf 1011,7 hPa 0,0 l/m 0,00 h 0,30 h 0 W/m 1,0 km/h (0 Bft) 97,69 %
24.10.2016 07:00 6,8 C 6,9 C 5,6 C 98 % 12 lf 1011,3 hPa 0,0 l/m 0,00 h 0,03 h 0 W/m 9,9 km/h (2 Bft) 95,52 %
24.10.2016 08:00 7,0 C 7,2 C 5,9 C 99 % 1 lf 1011,5 hPa 0,0 l/m 0,00 h 0,00 h 8 W/m 8,3 km/h (2 Bft) 94,80 %
24.10.2016 09:00 7,2 C 7,8 C 6,4 C 98 % 1 lf 1011,6 hPa 0,0 l/m 0,00 h 0,00 h 27 W/m 10,1 km/h (2 Bft) 98,13 %
24.10.2016 10:00 7,5 C 8,3 C 7,1 C 99 % 0 lf 1011,5 hPa 0,0 l/m 0,00 h 0,00 h 45 W/m 8,5 km/h (2 Bft) 96,08 %
24.10.2016 11:00 8,1 C 8,7 C 7,6 C 98 % 5 lf 1011,4 hPa 0,4 l/m 0,00 h 0,40 h 37 W/m 6,2 km/h (2 Bft) 95,38 %
24.10.2016 12:00 8,8 C 9,2 C 8,1 C 99 % 15 lf 1011,2 hPa 1,0 l/m 0,00 h 0,97 h 59 W/m 8,4 km/h (2 Bft) 96,40 %
24.10.2016 13:00 9,6 C 9,8 C 8,9 C 99 % 15 lf 1011,2 hPa 0,4 l/m 0,00 h 1,00 h 59 W/m 7,6 km/h (2 Bft) 95,94 %
24.10.2016 14:00 10,0 C 10,2 C 9,3 C 99 % 15 lf 1011,2 hPa 0,2 l/m 0,00 h 0,87 h 82 W/m 11,5 km/h (2 Bft) 97,14 %
24.10.2016 15:00 10,3 C 10,6 C 9,4 C 99 % 15 lf 1011,5 hPa 0,4 l/m 0,00 h 0,97 h 40 W/m 3,0 km/h (1 Bft) 95,80 %
24.10.2016 16:00 10,3 C 10,3 C 9,0 C 98 % 15 lf 1011,7 hPa 0,2 l/m 0,00 h 0,33 h 36 W/m 6,1 km/h (2 Bft) 96,03 %
24.10.2016 17:00 10,1 C 10,0 C 8,9 C 99 % 15 lf 1012,2 hPa 0,2 l/m 0,00 h 0,63 h 12 W/m 5,2 km/h (1 Bft) 96,02 %
24.10.2016 18:00 9,7 C 9,4 C 8,3 C 98 % 15 lf 1012,4 hPa 0,0 l/m 0,00 h 0,27 h 4 W/m 6,5 km/h (2 Bft) 96,50 %
24.10.2016 19:00 9,6 C 9,4 C 8,3 C 99 % 15 lf 1013,0 hPa 0,2 l/m 0,00 h 0,77 h 0 W/m 3,5 km/h (1 Bft) 96,44 %
24.10.2016 20:00 9,6 C 9,4 C 8,3 C 99 % 15 lf 1012,9 hPa 0,2 l/m 0,00 h 0,57 h 0 W/m 3,6 km/h (1 Bft) 95,88 %
24.10.2016 21:00 9,6 C 9,4 C 8,3 C 99 % 15 lf 1013,4 hPa 0,0 l/m 0,00 h 0,00 h 0 W/m 1,9 km/h (1 Bft) 96,09 %
24.10.2016 22:00 9,5 C 9,4 C 8,3 C 99 % 15 lf 1013,6 hPa 0,0 l/m 0,00 h 0,00 h 0 W/m 0,8 km/h (0 Bft) 97,22 %
24.10.2016 23:00 9,5 C 9,4 C 8,3 C 99 % 15 lf 1014,3 hPa 0,0 l/m 0,00 h 0,00 h 0 W/m 1,1 km/h (1 Bft) 94,73 %
25.10.2016 00:00 9,5 C 9,4 C 8,3 C 99 % 15 lf 1014,7 hPa 0,0 l/m 0,00 h 0,00 h 0 W/m 2,2 km/h (1 Bft) 95,80 %
25.10.2016 01:00 9,4 C 9,4 C 7,9 C 99 % 15 lf 1015,0 hPa 0,0 l/m 0,00 h 0,00 h 0 W/m 0,4 km/h (0 Bft) 97,14 %
25.10.2016 02:00 9,3 C 9,4 C 8,2 C 99 % 15 lf 1015,3 hPa 0,0 l/m 0,00 h 0,00 h 0 W/m 2,3 km/h (1 Bft) 95,53 %
25.10.2016 03:00 9,5 C 9,6 C 8,3 C 99 % 15 lf 1016,2 hPa 0,0 l/m 0,00 h 0,00 h 0 W/m 7,2 km/h (2 Bft) 97,08 %
25.10.2016 04:00 9,7 C 9,5 C 8,3 C 99 % 15 lf 1016,7 hPa 0,0 l/m 0,00 h 0,00 h 0 W/m 8,2 km/h (2 Bft) 94,31 %
25.10.2016 05:00 9,5 C 9,4 C 8,3 C 99 % 15 lf 1017,1 hPa 0,0 l/m 0,00 h 0,07 h 0 W/m 8,3 km/h (2 Bft) 96,58 %
25.10.2016 06:00 9,3 C 9,1 C 8,0 C 99 % 15 lf 1018,0 hPa 0,2 l/m 0,00 h 0,43 h 0 W/m 9,6 km/h (2 Bft) 97,86 %
25.10.2016 07:00 9,0 C 8,9 C 7,8 C 99 % 15 lf 1019,0 hPa 0,0 l/m 0,00 h 0,00 h 0 W/m 9,2 km/h (2 Bft) 95,37 %
25.10.2016 08:00 8,7 C 8,9 C 7,8 C 99 % 15 lf 1019,9 hPa 0,0 l/m 0,00 h 0,00 h 7 W/m 9,2 km/h (2 Bft) 94,38 %
25.10.2016 09:00 8,7 C 8,9 C 7,8 C 99 % 15 lf 1020,7 hPa 0,0 l/m 0,00 h 0,00 h 18 W/m 8,9 km/h (2 Bft) 98,43 %
25.10.2016 10:00 8,8 C 9,1 C 8,1 C 99 % 15 lf 1021,1 hPa 0,0 l/m 0,00 h 0,00 h 44 W/m 9,7 km/h (2 Bft) 95,30 %
25.10.2016 11:00 8,8 C 9,1 C 8,0 C 99 % 15 lf 1021,7 hPa 0,0 l/m 0,00 h 0,00 h 34 W/m 7,8 km/h (2 Bft) 95,16 %
25.10.2016 12:00 8,8 C 9,0 C 7,8 C 99 % 15 lf 1022,4 hPa 0,0 l/m 0,00 h 0,00 h 35 W/m 6,4 km/h (2 Bft) 97,35 %
25.10.2016 13:00 8,7 C 9,2 C 8,0 C 99 % 15 lf 1022,8 hPa 0,0 l/m 0,00 h 0,00 h 44 W/m 5,5 km/h (1 Bft) 94,88 %
25.10.2016 14:00 8,9 C 9,4 C 8,2 C 99 % 13 lf 1023,0 hPa 0,0 l/m 0,00 h 0,00 h 34 W/m 5,2 km/h (1 Bft) 97,72 %
25.10.2016 15:00 8,9 C 9,4 C 7,9 C 99 % 13 lf 1023,2 hPa 0,0 l/m 0,00 h 0,00 h 34 W/m 4,8 km/h (1 Bft) 96,22 %
25.10.2016 16:00 9,0 C 9,4 C 8,3 C 99 % 4 lf 1023,8 hPa 0,0 l/m 0,00 h 0,00 h 31 W/m 2,2 km/h (1 Bft) 94,44 %
25.10.2016 17:00 9,2 C 9,4 C 8,2 C 99 % 1 lf 1024,1 hPa 0,0 l/m 0,00 h 0,00 h 14 W/m 0,1 km/h (0 Bft) 97,30 %
25.10.2016 18:00 9,1 C 8,9 C 7,8 C 99 % 1 lf 1024,5 hPa 0,0 l/m 0,00 h 0,00 h 4 W/m 0,0 km/h (0 Bft) 98,38 %
25.10.2016 19:00 9,0 C 8,9 C 7,8 C 99 % 2 lf 1025,0 hPa 0,0 l/m 0,00 h 0,00 h 0 W/m 0,0 km/h (0 Bft) 92,74 %
25.10.2016 20:00 8,8 C 8,9 C 7,6 C 99 % 1 lf 1025,3 hPa 0,0 l/m 0,00 h 0,00 h 0 W/m 5,1 km/h (1 Bft) 97,53 %
25.10.2016 21:00 8,5 C 8,7 C 7,2 C 99 % 1 lf 1025,9 hPa 0,0 l/m 0,00 h 0,00 h 0 W/m 8,7 km/h (2 Bft) 96,65 %
25.10.2016 22:00 8,4 C 8,5 C 7,2 C 99 % 1 lf 1026,0 hPa 0,0 l/m 0,00 h 0,00 h 0 W/m 2,2 km/h (1 Bft) 96,55 %
25.10.2016 23:00 8,4 C 8,7 C 7,2 C 99 % 1 lf 1026,0 hPa 0,0 l/m 0,00 h 0,00 h 0 W/m 5,0 km/h (1 Bft) 95,73 %
26.10.2016 00:00 8,5 C 8,3 C 7,2 C 99 % 1 lf 1026,1 hPa 0,0 l/m 0,00 h 0,00 h 0 W/m 2,2 km/h (1 Bft) 95,63 %
26.10.2016 01:00 8,4 C 8,3 C 7,2 C 99 % 1 lf 1026,3 hPa 0,0 l/m 0,00 h 0,00 h 0 W/m 0,3 km/h (0 Bft) 96,94 %
26.10.2016 02:00 8,4 C 8,3 C 7,2 C 99 % 1 lf 1026,4 hPa 0,0 l/m 0,00 h 0,00 h 0 W/m 0,6 km/h (0 Bft) 96,73 %
26.10.2016 03:00 8,4 C 8,3 C 7,2 C 99 % 1 lf 1026,5 hPa 0,0 l/m 0,00 h 0,00 h 0 W/m 2,0 km/h (1 Bft) 96,01 %
26.10.2016 04:00 8,4 C 8,3 C 7,2 C 99 % 1 lf 1026,4 hPa 0,0 l/m 0,00 h 0,00 h 0 W/m 2,0 km/h (1 Bft) 94,63 %
26.10.2016 05:00 8,4 C 8,3 C 7,2 C 99 % 1 lf 1026,4 hPa 0,0 l/m 0,00 h 0,00 h 0 W/m 2,4 km/h (1 Bft) 97,04 %
26.10.2016 06:00 8,4 C 8,3 C 7,2 C 99 % 1 lf 1026,6 hPa 0,0 l/m 0,00 h 0,00 h 0 W/m 0,3 km/h (0 Bft) 96,89 %
26.10.2016 07:00 8,3 C 8,3 C 7,2 C 99 % 1 lf 1027,1 hPa 0,0 l/m 0,00 h 0,00 h 0 W/m 0,2 km/h (0 Bft) 96,25 %
26.10.2016 08:00 8,3 C 8,3 C 7,2 C 99 % 1 lf 1027,3 hPa 0,0 l/m 0,00 h 0,00 h 12 W/m 2,5 km/h (1 Bft) 94,63 %
26.10.2016 09:00 8,3 C 9,2 C 7,8 C 99 % 1 lf 1027,6 hPa 0,0 l/m 0,00 h 0,03 h 50 W/m 1,9 km/h (1 Bft) 98,09 %
26.10.2016 10:00 8,8 C 12,7 C 8,9 C 99 % 0 lf 1027,9 hPa 0,0 l/m 0,57 h 0,00 h 159 W/m 1,3 km/h (1 Bft) 96,44 %
26.10.2016 11:00 10,1 C 18,3 C 9,7 C 97 % 0 lf 1028,0 hPa 0,0 l/m 0,97 h 0,00 h 310 W/m 5,9 km/h (2 Bft) 95,03 %
26.10.2016 12:00 11,4 C 16,0 C 11,2 C 86 % 0 lf 1028,2 hPa 0,0 l/m 0,80 h 0,00 h 274 W/m 9,0 km/h (2 Bft) 97,04 %
26.10.2016 13:00 12,1 C 16,4 C 12,5 C 82 % 0 lf 1028,1 hPa 0,0 l/m 0,90 h 0,00 h 331 W/m 10,4 km/h (2 Bft) 96,85 %
26.10.2016 14:00 12,2 C 13,9 C 11,9 C 80 % 0 lf 1028,2 hPa 0,0 l/m 0,10 h 0,00 h 155 W/m 9,7 km/h (2 Bft) 95,28 %
26.10.2016 15:00 12,1 C 15,3 C 11,6 C 81 % 0 lf 1028,1 hPa 0,0 l/m 0,63 h 0,00 h 183 W/m 8,0 km/h (2 Bft) 97,04 %
26.10.2016 16:00 11,9 C 13,1 C 10,5 C 82 % 0 lf 1028,3 hPa 0,0 l/m 0,03 h 0,00 h 107 W/m 6,5 km/h (2 Bft) 97,05 %
26.10.2016 17:00 11,4 C 11,2 C 9,1 C 84 % 0 lf 1028,4 hPa 0,0 l/m 0,00 h 0,00 h 41 W/m 4,2 km/h (1 Bft) 94,46 %
26.10.2016 18:00 10,6 C 9,9 C 8,1 C 87 % 0 lf 1028,3 hPa 0,0 l/m 0,00 h 0,00 h 8 W/m 5,1 km/h (1 Bft) 97,40 %
26.10.2016 19:00 9,8 C 8,9 C 6,8 C 88 % 0 lf 1028,6 hPa 0,0 l/m 0,00 h 0,00 h 5 W/m 3,9 km/h (1 Bft) 96,45 %
26.10.2016 20:00 8,9 C 7,9 C 5,8 C 90 % 2 lf 1028,9 hPa 0,0 l/m 0,00 h 0,00 h 5 W/m 3,4 km/h (1 Bft) 96,47 %
26.10.2016 21:00 7,9 C 6,9 C 5,1 C 92 % 7 lf 1029,5 hPa 0,0 l/m 0,00 h 0,00 h 4 W/m 0,3 km/h (0 Bft) 95,60 %
26.10.2016 22:00 7,2 C 6,4 C 4,6 C 93 % 14 lf 1030,0 hPa 0,0 l/m 0,00 h 0,00 h 0 W/m 1,8 km/h (1 Bft) 95,62 %
26.10.2016 23:00 6,7 C 6,2 C 4,4 C 94 % 15 lf 1030,1 hPa 0,0 l/m 0,00 h 0,00 h 0 W/m 6,9 km/h (2 Bft) 96,71 %
27.10.2016 00:00 7,0 C 7,3 C 6,0 C 96 % 15 lf 1030,0 hPa 0,0 l/m 0,00 h 0,00 h 0 W/m 6,2 km/h (2 Bft) 97,74 %
27.10.2016 01:00 7,9 C 8,6 C 7,1 C 97 % 14 lf 1029,7 hPa 0,0 l/m 0,00 h 0,00 h 0 W/m 8,8 km/h (2 Bft) 92,79 %
27.10.2016 02:00 8,5 C 8,9 C 7,6 C 97 % 1 lf 1029,8 hPa 0,0 l/m 0,00 h 0,00 h 0 W/m 7,6 km/h (2 Bft) 96,61 %
27.10.2016 03:00 8,6 C 8,5 C 6,9 C 97 % 1 lf 1029,9 hPa 0,0 l/m 0,00 h 0,00 h 0 W/m 9,7 km/h (2 Bft) 97,86 %
27.10.2016 04:00 8,3 C 8,0 C 6,0 C 97 % 2 lf 1029,8 hPa 0,0 l/m 0,00 h 0,00 h 0 W/m 7,5 km/h (2 Bft) 94,27 %
27.10.2016 05:00 8,1 C 7,9 C 6,0 C 96 % 2 lf 1030,0 hPa 0,0 l/m 0,00 h 0,00 h 0 W/m 9,1 km/h (2 Bft) 97,17 %
27.10.2016 06:00 8,0 C 8,1 C 6,6 C 97 % 2 lf 1030,2 hPa 0,0 l/m 0,00 h 0,00 h 0 W/m 10,0 km/h (2 Bft) 95,87 %
27.10.2016 07:00 8,8 C 9,3 C 7,9 C 97 % 1 lf 1030,4 hPa 0,0 l/m 0,00 h 0,00 h 0 W/m 12,2 km/h (2 Bft) 96,47 %
27.10.2016 08:00 9,4 C 9,6 C 8,3 C 97 % 1 lf 1030,9 hPa 0,0 l/m 0,00 h 0,00 h 15 W/m 13,0 km/h (3 Bft) 97,32 %
27.10.2016 09:00 9,7 C 10,3 C 9,0 C 97 % 1 lf 1031,5 hPa 0,0 l/m 0,00 h 0,00 h 42 W/m 13,7 km/h (3 Bft) 95,26 %
27.10.2016 10:00 10,3 C 11,6 C 10,3 C 97 % 0 lf 1031,8 hPa 0,0 l/m 0,00 h 0,00 h 95 W/m 12,5 km/h (3 Bft) 94,83 %
27.10.2016 11:00 11,2 C 13,0 C 11,7 C 97 % 0 lf 1032,0 hPa 0,0 l/m 0,17 h 0,00 h 130 W/m 14,0 km/h (3 Bft) 98,80 %
27.10.2016 12:00 11,9 C 13,6 C 12,6 C 96 % 0 lf 1032,1 hPa 0,0 l/m 0,00 h 0,00 h 168 W/m 15,6 km/h (3 Bft) 94,91 %
27.10.2016 13:00 12,6 C 14,2 C 13,1 C 94 % 0 lf 1032,0 hPa 0,0 l/m 0,00 h 0,00 h 166 W/m 18,5 km/h (3 Bft) 95,62 %
27.10.2016 14:00 12,8 C 14,0 C 12,8 C 91 % 0 lf 1032,0 hPa 0,0 l/m 0,00 h 0,00 h 145 W/m 18,5 km/h (3 Bft) 97,74 %
27.10.2016 15:00 13,0 C 15,0 C 13,3 C 90 % 0 lf 1031,9 hPa 0,0 l/m 0,47 h 0,00 h 165 W/m 15,3 km/h (3 Bft) 95,60 %
27.10.2016 16:00 13,4 C 14,9 C 12,8 C 88 % 0 lf 1032,1 hPa 0,0 l/m 0,40 h 0,00 h 119 W/m 15,3 km/h (3 Bft) 95,46 %
27.10.2016 17:00 13,0 C 12,8 C 11,3 C 88 % 0 lf 1032,0 hPa 0,0 l/m 0,00 h 0,00 h 38 W/m 7,9 km/h (2 Bft) 98,96 %
27.10.2016 18:00 12,3 C 11,9 C 9,9 C 91 % 0 lf 1031,5 hPa 0,0 l/m 0,00 h 0,00 h 6 W/m 9,8 km/h (2 Bft) 94,35 %
27.10.2016 19:00 11,6 C 11,1 C 9,2 C 93 % 1 lf 1031,5 hPa 0,0 l/m 0,00 h 0,00 h 0 W/m 8,4 km/h (2 Bft) 97,89 %
27.10.2016 20:00 11,0 C 10,3 C 8,1 C 94 % 2 lf 1031,6 hPa 0,0 l/m 0,00 h 0,00 h 4 W/m 7,3 km/h (2 Bft) 95,53 %
27.10.2016 21:00 10,7 C 10,6 C 8,6 C 95 % 2 lf 1031,5 hPa 0,0 l/m 0,00 h 0,00 h 0 W/m 9,9 km/h (2 Bft) 94,89 %
27.10.2016 22:00 10,7 C 10,5 C 8,6 C 96 % 1 lf 1031,5 hPa 0,0 l/m 0,00 h 0,00 h 0 W/m 9,8 km/h (2 Bft) 97,87 %
27.10.2016 23:00 10,5 C 10,2 C 8,5 C 96 % 2 lf 1031,6 hPa 0,0 l/m 0,00 h 0,00 h 0 W/m 10,5 km/h (2 Bft) 97,66 %
28.10.2016 00:00 10,3 C 10,0 C 8,1 C 97 % 3 lf 1031,6 hPa 0,0 l/m 0,00 h 0,00 h 0 W/m 9,6 km/h (2 Bft) 93,10 %
28.10.2016 01:00 10,2 C 10,1 C 8,4 C 97 % 4 lf 1031,6 hPa 0,0 l/m 0,00 h 0,00 h 0 W/m 10,4 km/h (2 Bft) 97,87 %
28.10.2016 02:00 10,7 C 11,1 C 9,5 C 98 % 1 lf 1031,3 hPa 0,0 l/m 0,00 h 0,00 h 0 W/m 13,8 km/h (3 Bft) 97,00 %
28.10.2016 03:00 11,2 C 11,6 C 9,7 C 98 % 1 lf 1030,8 hPa 0,0 l/m 0,00 h 0,00 h 0 W/m 17,3 km/h (3 Bft) 94,74 %
28.10.2016 04:00 11,4 C 11,7 C 10,0 C 97 % 0 lf 1030,5 hPa 0,0 l/m 0,00 h 0,00 h 0 W/m 14,7 km/h (3 Bft) 97,02 %
28.10.2016 05:00 11,6 C 11,7 C 10,1 C 96 % 0 lf 1030,5 hPa 0,0 l/m 0,00 h 0,00 h 0 W/m 12,4 km/h (3 Bft) 95,73 %
28.10.2016 06:00 11,6 C 11,7 C 10,1 C 95 % 0 lf 1030,5 hPa 0,0 l/m 0,00 h 0,00 h 0 W/m 12,9 km/h (3 Bft) 96,69 %
28.10.2016 07:00 11,7 C 12,1 C 10,6 C 94 % 0 lf 1030,4 hPa 0,0 l/m 0,00 h 0,00 h 0 W/m 15,7 km/h (3 Bft) 96,87 %
28.10.2016 08:00 11,9 C 12,2 C 10,6 C 93 % 0 lf 1030,6 hPa 0,0 l/m 0,00 h 0,00 h 8 W/m 14,7 km/h (3 Bft) 94,60 %
28.10.2016 09:00 12,0 C 12,4 C 10,9 C 92 % 0 lf 1031,3 hPa 0,0 l/m 0,00 h 0,00 h 24 W/m 14,6 km/h (3 Bft) 95,76 %
28.10.2016 10:00 12,3 C 13,3 C 11,8 C 92 % 0 lf 1031,6 hPa 0,0 l/m 0,00 h 0,00 h 91 W/m 17,0 km/h (3 Bft) 98,65 %
28.10.2016 11:00 12,9 C 13,7 C 12,4 C 90 % 0 lf 1031,9 hPa 0,0 l/m 0,00 h 0,00 h 77 W/m 17,4 km/h (3 Bft) 93,33 %
28.10.2016 12:00 12,9 C 13,5 C 12,2 C 90 % 0 lf 1032,3 hPa 0,0 l/m 0,00 h 0,00 h 68 W/m 17,4 km/h (3 Bft) 96,87 %
28.10.2016 13:00 13,1 C 13,9 C 12,7 C 90 % 0 lf 1032,2 hPa 0,0 l/m 0,00 h 0,00 h 79 W/m 17,5 km/h (3 Bft) 97,79 %
28.10.2016 14:00 13,3 C 14,0 C 12,9 C 90 % 0 lf 1031,9 hPa 0,0 l/m 0,00 h 0,00 h 94 W/m 18,0 km/h (3 Bft) 95,51 %
28.10.2016 15:00 13,3 C 13,5 C 12,4 C 90 % 0 lf 1032,1 hPa 0,0 l/m 0,00 h 0,00 h 37 W/m 16,0 km/h (3 Bft) 95,53 %
28.10.2016 16:00 13,1 C 13,4 C 12,0 C 91 % 0 lf 1032,3 hPa 0,0 l/m 0,00 h 0,00 h 27 W/m 13,7 km/h (3 Bft) 98,22 %
28.10.2016 17:00 13,1 C 13,2 C 11,9 C 92 % 0 lf 1032,3 hPa 0,0 l/m 0,00 h 0,00 h 18 W/m 12,9 km/h (3 Bft) 94,02 %
28.10.2016 18:00 12,8 C 12,8 C 11,7 C 93 % 0 lf 1032,6 hPa 0,0 l/m 0,00 h 0,00 h 5 W/m 14,5 km/h (3 Bft) 98,09 %
28.10.2016 19:00 12,7 C 12,6 C 11,3 C 93 % 4 lf 1033,0 hPa 0,0 l/m 0,00 h 0,00 h 0 W/m 14,8 km/h (3 Bft) 95,80 %
28.10.2016 20:00 12,4 C 12,0 C 10,6 C 95 % 15 lf 1033,3 hPa 0,0 l/m 0,00 h 0,00 h 0 W/m 14,8 km/h (3 Bft) 95,22 %
28.10.2016 21:00 12,2 C 11,8 C 10,6 C 96 % 15 lf 1033,4 hPa 0,0 l/m 0,00 h 0,00 h 0 W/m 14,0 km/h (3 Bft) 97,51 %
28.10.2016 22:00 12,2 C 12,2 C 10,6 C 97 % 15 lf 1033,4 hPa 0,2 l/m 0,00 h 0,00 h 0 W/m 13,7 km/h (3 Bft) 97,23 %
28.10.2016 23:00 12,2 C 12,2 C 10,7 C 98 % 15 lf 1033,5 hPa 0,0 l/m 0,00 h 0,00 h 0 W/m 11,4 km/h (2 Bft) 92,88 %
29.10.2016 00:00 12,3 C 12,2 C 11,0 C 98 % 6 lf 1033,5 hPa 0,0 l/m 0,00 h 0,00 h 0 W/m 10,4 km/h (2 Bft) 98,38 %
29.10.2016 01:00 12,1 C 11,9 C 10,3 C 98 % 2 lf 1033,5 hPa 0,0 l/m 0,00 h 0,00 h 0 W/m 7,1 km/h (2 Bft) 96,16 %
29.10.2016 02:00 11,9 C 12,0 C 10,5 C 98 % 2 lf 1033,5 hPa 0,0 l/m 0,00 h 0,00 h 0 W/m 6,5 km/h (2 Bft) 94,73 %
29.10.2016 03:00 11,9 C 11,7 C 10,4 C 98 % 2 lf 1033,3 hPa 0,0 l/m 0,00 h 0,00 h 0 W/m 6,2 km/h (2 Bft) 97,28 %
29.10.2016 04:00 11,7 C 11,7 C 10,2 C 98 % 3 lf 1032,9 hPa 0,0 l/m 0,00 h 0,00 h 0 W/m 6,5 km/h (2 Bft) 96,58 %
29.10.2016 05:00 11,8 C 12,1 C 10,6 C 98 % 2 lf 1033,0 hPa 0,0 l/m 0,00 h 0,00 h 0 W/m 6,3 km/h (2 Bft) 96,01 %
29.10.2016 06:00 11,8 C 11,8 C 10,6 C 99 % 2 lf 1033,2 hPa 0,0 l/m 0,00 h 0,00 h 0 W/m 5,6 km/h (1 Bft) 96,42 %
29.10.2016 07:00 11,8 C 11,7 C 10,6 C 99 % 2 lf 1033,3 hPa 0,0 l/m 0,00 h 0,00 h 0 W/m 3,4 km/h (1 Bft) 95,02 %
29.10.2016 08:00 11,7 C 11,6 C 9,9 C 99 % 3 lf 1033,7 hPa 0,0 l/m 0,00 h 0,00 h 11 W/m 2,4 km/h (1 Bft) 96,38 %
29.10.2016 09:00 11,6 C 12,5 C 10,3 C 99 % 3 lf 1034,1 hPa 0,0 l/m 0,27 h 0,00 h 73 W/m 4,5 km/h (1 Bft) 98,57 %
29.10.2016 10:00 11,8 C 15,7 C 11,9 C 99 % 0 lf 1034,4 hPa 0,0 l/m 0,57 h 0,00 h 152 W/m 8,5 km/h (2 Bft) 93,18 %
29.10.2016 11:00 12,2 C 20,4 C 12,4 C 96 % 0 lf 1034,4 hPa 0,0 l/m 0,90 h 0,00 h 279 W/m 12,8 km/h (3 Bft) 97,58 %
29.10.2016 12:00 13,7 C 21,2 C 12,7 C 81 % 0 lf 1034,3 hPa 0,0 l/m 0,93 h 0,00 h 432 W/m 17,1 km/h (3 Bft) 98,41 %
29.10.2016 13:00 14,1 C 19,2 C 13,2 C 77 % 0 lf 1033,8 hPa 0,0 l/m 0,97 h 0,00 h 554 W/m 16,7 km/h (3 Bft) 92,73 %
29.10.2016 14:00 14,6 C 22,2 C 13,4 C 74 % 0 lf 1033,1 hPa 0,0 l/m 0,97 h 0,00 h 376 W/m 15,7 km/h (3 Bft) 98,36 %
29.10.2016 15:00 14,8 C 21,5 C 13,2 C 74 % 0 lf 1032,6 hPa 0,0 l/m 0,80 h 0,00 h 243 W/m 13,7 km/h (3 Bft) 96,86 %
29.10.2016 16:00 14,7 C 18,8 C 12,9 C 73 % 0 lf 1032,4 hPa 0,0 l/m 0,87 h 0,00 h 158 W/m 14,3 km/h (3 Bft) 95,73 %
29.10.2016 17:00 13,7 C 13,2 C 11,3 C 76 % 0 lf 1032,3 hPa 0,0 l/m 0,37 h 0,00 h 43 W/m 9,9 km/h (2 Bft) 97,31 %
29.10.2016 18:00 12,2 C 10,2 C 7,9 C 80 % 0 lf 1032,2 hPa 0,0 l/m 0,00 h 0,00 h 8 W/m 2,2 km/h (1 Bft) 96,12 %
29.10.2016 19:00 10,3 C 8,0 C 6,4 C 85 % 1 lf 1032,4 hPa 0,0 l/m 0,00 h 0,00 h 0 W/m 0,0 km/h (0 Bft) 95,33 %
29.10.2016 20:00 8,8 C 7,0 C 5,7 C 89 % 5 lf 1032,4 hPa 0,0 l/m 0,00 h 0,00 h 0 W/m 0,8 km/h (0 Bft) 96,30 %
29.10.2016 21:00 7,8 C 6,4 C 5,1 C 90 % 14 lf 1032,2 hPa 0,0 l/m 0,00 h 0,00 h 0 W/m 0,3 km/h (0 Bft) 97,21 %
29.10.2016 22:00 7,1 C 5,9 C 4,7 C 91 % 15 lf 1032,2 hPa 0,0 l/m 0,00 h 0,00 h 0 W/m 0,0 km/h (0 Bft) 96,09 %
29.10.2016 23:00 6,5 C 5,6 C 4,4 C 92 % 15 lf 1032,3 hPa 0,0 l/m 0,00 h 0,00 h 0 W/m 0,0 km/h (0 Bft) 95,43 %
30.10.2016 00:00 6,0 C 5,4 C 4,1 C 92 % 15 lf 1032,0 hPa 0,0 l/m 0,00 h 0,00 h 0 W/m 0,0 km/h (0 Bft) 93,64 %
30.10.2016 01:00 6,3 C 6,5 C 5,4 C 94 % 15 lf 1031,8 hPa 0,0 l/m 0,00 h 0,00 h 0 W/m 1,0 km/h (0 Bft) 94,80 %
30.10.2016 02:00 7,0 C 7,1 C 6,1 C 96 % 15 lf 1031,5 hPa 0,0 l/m 0,00 h 0,00 h 0 W/m 1,0 km/h (0 Bft) 97,43 %
30.10.2016 03:00 7,3 C 7,0 C 6,0 C 97 % 15 lf 1031,0 hPa 0,0 l/m 0,00 h 0,00 h 0 W/m 0,0 km/h (0 Bft) 93,52 %
30.10.2016 04:00 7,2 C 6,8 C 5,6 C 97 % 15 lf 1030,6 hPa 0,0 l/m 0,00 h 0,00 h 0 W/m 2,9 km/h (1 Bft) 98,27 %
30.10.2016 05:00 7,0 C 6,5 C 5,0 C 97 % 15 lf 1030,6 hPa 0,0 l/m 0,00 h 0,00 h 0 W/m 5,1 km/h (1 Bft) 96,95 %
30.10.2016 06:00 6,3 C 5,2 C 3,9 C 97 % 15 lf 1030,4 hPa 0,0 l/m 0,00 h 0,00 h 0 W/m 3,0 km/h (1 Bft) 94,86 %
30.10.2016 07:00 5,6 C 5,2 C 3,7 C 97 % 15 lf 1030,4 hPa 0,0 l/m 0,00 h 0,00 h 14 W/m 4,5 km/h (1 Bft) 95,52 %
30.10.2016 08:00 5,9 C 6,2 C 4,6 C 97 % 15 lf 1030,9 hPa 0,0 l/m 0,83 h 0,00 h 85 W/m 4,5 km/h (1 Bft) 96,97 %
30.10.2016 09:00 7,6 C 13,3 C 6,2 C 98 % 15 lf 1030,5 hPa 0,0 l/m 1,00 h 0,00 h 206 W/m 4,5 km/h (1 Bft) 95,80 %
30.10.2016 10:00 10,2 C 19,5 C 8,3 C 99 % 8 lf 1030,8 hPa 0,0 l/m 1,00 h 0,00 h 316 W/m 8,3 km/h (2 Bft) 96,37 %
30.10.2016 11:00 12,2 C 19,8 C 10,3 C 90 % 0 lf 1031,0 hPa 0,0 l/m 1,00 h 0,00 h 377 W/m 8,3 km/h (2 Bft) 96,79 %
30.10.2016 12:00 13,4 C 18,6 C 11,5 C 80 % 0 lf 1030,4 hPa 0,0 l/m 0,97 h 0,00 h 379 W/m 7,0 km/h (2 Bft) 94,26 %
30.10.2016 13:00 14,4 C 19,8 C 12,2 C 75 % 0 lf 1029,9 hPa 0,0 l/m 1,00 h 0,00 h 345 W/m 9,7 km/h (2 Bft) 95,96 %
30.10.2016 14:00 15,2 C 21,7 C 13,0 C 73 % 0 lf 1029,4 hPa 0,0 l/m 0,90 h 0,00 h 254 W/m 9,2 km/h (2 Bft) 96,52 %
30.10.2016 15:00 14,6 C 16,3 C 12,0 C 75 % 0 lf 1029,3 hPa 0,0 l/m 0,63 h 0,00 h 113 W/m 8,2 km/h (2 Bft) 97,85 %
30.10.2016 16:00 13,8 C 13,2 C 9,8 C 77 % 0 lf 1029,1 hPa 0,0 l/m 0,23 h 0,00 h 39 W/m 3,9 km/h (1 Bft) 95,60 %
30.10.2016 17:00 12,4 C 10,9 C 8,5 C 83 % 0 lf 1029,1 hPa 0,0 l/m 0,00 h 0,00 h 6 W/m 0,9 km/h (0 Bft) 96,59 %
30.10.2016 18:00 11,2 C 9,7 C 7,4 C 86 % 1 lf 1029,2 hPa 0,0 l/m 0,00 h 0,00 h 3 W/m 0,4 km/h (0 Bft) 95,02 %
30.10.2016 19:00 9,8 C 7,8 C 5,9 C 88 % 3 lf 1029,3 hPa 0,0 l/m 0,00 h 0,00 h 0 W/m 0,6 km/h (0 Bft) 96,06 %
30.10.2016 20:00 8,6 C 7,0 C 5,2 C 90 % 12 lf 1029,4 hPa 0,0 l/m 0,00 h 0,00 h 0 W/m 0,0 km/h (0 Bft) 96,48 %
30.10.2016 21:00 7,7 C 6,5 C 4,7 C 91 % 15 lf 1029,4 hPa 0,0 l/m 0,00 h 0,00 h 0 W/m 0,0 km/h (0 Bft) 98,15 %
30.10.2016 22:00 7,1 C 5,8 C 4,4 C 92 % 15 lf 1029,3 hPa 0,0 l/m 0,00 h 0,00 h 0 W/m 0,0 km/h (0 Bft) 94,08 %
30.10.2016 23:00 6,5 C 5,4 C 3,9 C 92 % 15 lf 1029,3 hPa 0,0 l/m 0,00 h 0,00 h 0 W/m 0,0 km/h (0 Bft) 96,23 %
Min-Datum _ 24.10.16 24.10.16 24.10.16 29.10.16 24.10.16 24.10.16 - - - - 24.10.16 30.10.16
_ Min-Zeit 00:02 00:00 00:00 15:54 09:38 05:16 - - - - 00:10 00:02
Minimum _ 4,7 C 4,4 C 3,3 C 72 % 0 lf 1011,0 hPa - - - - 0,0 km/h (0 Bft) 7,14 %
Max-Datum _ 30.10.16 30.10.16 27.10.16 24.10.16 24.10.16 29.10.16 24.10.16 26.10.16 24.10.16 29.10.16 27.10.16 24.10.16
_ Max-Zeit 14:22 14:14 15:28 07:42 00:00 09:56 12:06 10:26 06:14 13:18 13:46 01:00
Maximum _ 15,3 C 26,1 C 13,9 C 99 % 15 lf 1034,4 hPa 1,0 l/m 0,03 h 0,03 h 852 W/m 27,2 km/h
W-SW (4 Bft)
100,00 %
Durchschnitt _ 10,0 C 10,6 C 8,6 C 94 % 6 lf 1026,7 hPa #3,6 l/m #19:14 h #7:38 h 103 W/m 7,3 km/h (2 Bft) 96,21 %
© 2016 W. Hausmann